createdAt,value
2022-10-21T00:01:47.985Z,51.05
2022-10-21T00:04:14.519Z,51.20
2022-10-21T00:06:40.902Z,52.75
2022-10-21T00:09:07.314Z,51.92
2022-10-21T00:11:33.829Z,52.65
2022-10-21T00:14:00.155Z,50.95
2022-10-21T00:16:26.582Z,51.85
2022-10-21T00:18:52.906Z,52.08
2022-10-21T00:21:22.064Z,52.47
2022-10-21T00:23:50.087Z,52.33
2022-10-21T00:26:17.986Z,50.97
2022-10-21T00:28:44.902Z,51.22
2022-10-21T00:31:13.766Z,50.70
2022-10-21T00:33:40.485Z,52.63
2022-10-21T00:36:07.746Z,50.10
2022-10-21T00:38:35.972Z,52.97
2022-10-21T00:41:02.497Z,51.47
2022-10-21T00:43:32.447Z,51.92
2022-10-21T00:46:04.999Z,54.50
2022-10-21T00:48:35.798Z,51.53
2022-10-21T00:51:12.742Z,54.13
2022-10-21T00:53:42.849Z,53.53
2022-10-21T00:56:16.817Z,54.40
2022-10-21T00:58:48.886Z,52.30
2022-10-21T01:01:19.202Z,52.20
2022-10-21T01:03:47.918Z,53.58
2022-10-21T01:06:15.632Z,52.13
2022-10-21T01:08:42.063Z,52.58
2022-10-21T01:11:13.747Z,54.63
2022-10-21T01:14:17.823Z,56.65
2022-10-21T01:17:26.386Z,54.63
2022-10-21T01:20:19.069Z,52.58
2022-10-21T01:23:10.298Z,53.85
2022-10-21T01:26:20.830Z,55.22
2022-10-21T01:29:09.026Z,53.55
2022-10-21T01:32:04.586Z,52.63
2022-10-21T01:34:37.437Z,56.50
2022-10-21T01:37:11.787Z,53.17
2022-10-21T01:40:17.050Z,53.03
2022-10-21T01:43:13.755Z,52.55
2022-10-21T01:45:51.403Z,53.55
2022-10-21T01:48:22.054Z,54.33
2022-10-21T01:50:55.130Z,54.92
2022-10-21T01:53:26.597Z,53.03
2022-10-21T01:55:55.679Z,55.22
2022-10-21T01:58:26.872Z,54.28
2022-10-21T02:00:56.561Z,52.97
2022-10-21T02:03:30.321Z,53.70
2022-10-21T02:05:56.692Z,55.15
2022-10-21T02:08:23.225Z,53.78
2022-10-21T02:10:52.596Z,55.67
2022-10-21T02:13:25.035Z,52.40
2022-10-21T02:15:57.865Z,56.95
2022-10-21T02:18:25.716Z,53.45
2022-10-21T02:21:06.388Z,55.58
2022-10-21T02:23:51.086Z,53.38
2022-10-21T02:26:17.873Z,52.55
2022-10-21T02:28:44.340Z,54.17
2022-10-21T02:31:27.061Z,55.00
2022-10-21T02:34:05.927Z,52.63
2022-10-21T02:36:42.219Z,54.17
2022-10-21T02:39:23.759Z,55.63
2022-10-21T02:41:53.334Z,55.97
2022-10-21T02:44:20.079Z,57.47
2022-10-21T02:46:47.901Z,54.67
2022-10-21T02:49:16.991Z,56.97
2022-10-21T02:51:45.184Z,57.22
2022-10-21T02:54:12.186Z,58.15
2022-10-21T02:56:38.571Z,56.78
2022-10-21T02:59:04.909Z,54.88
2022-10-21T03:01:31.487Z,54.85
2022-10-21T03:03:57.895Z,63.92
2022-10-21T03:06:24.400Z,54.80
2022-10-21T03:08:50.824Z,54.92
2022-10-21T03:11:17.304Z,57.40
2022-10-21T03:13:43.827Z,62.00
2022-10-21T03:16:10.322Z,57.08
2022-10-21T03:18:36.762Z,62.30
2022-10-21T03:21:03.213Z,59.10
2022-10-21T03:23:29.954Z,59.33
2022-10-21T03:25:56.301Z,52.53
2022-10-21T03:28:22.669Z,58.88
2022-10-21T03:30:49.053Z,55.33
2022-10-21T03:33:15.490Z,53.28
2022-10-21T03:35:41.872Z,54.35
2022-10-21T03:38:08.293Z,57.85
2022-10-21T03:40:34.856Z,58.22
2022-10-21T03:43:01.290Z,56.65
2022-10-21T03:45:27.774Z,57.28
2022-10-21T03:47:54.267Z,54.22
2022-10-21T03:50:26.173Z,55.17
2022-10-21T03:52:53.257Z,54.80
2022-10-21T03:55:21.034Z,54.35
2022-10-21T03:57:48.135Z,54.65
2022-10-21T04:00:15.502Z,57.63
2022-10-21T04:02:42.270Z,52.83
2022-10-21T04:05:09.384Z,57.00
2022-10-21T04:07:36.013Z,56.72
2022-10-21T04:10:02.534Z,52.92
2022-10-21T04:12:28.967Z,53.50
2022-10-21T04:14:55.356Z,57.55
2022-10-21T04:17:21.770Z,61.30
2022-10-21T04:19:48.316Z,57.92
2022-10-21T04:22:17.472Z,55.33
2022-10-21T04:24:43.877Z,57.35
2022-10-21T04:27:10.341Z,55.58
2022-10-21T04:29:36.746Z,56.60
2022-10-21T04:32:03.513Z,53.78
2022-10-21T04:34:30.361Z,53.72
2022-10-21T04:36:59.850Z,58.72
2022-10-21T04:39:29.297Z,55.10
2022-10-21T04:41:56.411Z,55.45
2022-10-21T04:44:22.860Z,53.58
2022-10-21T04:46:49.249Z,56.03
2022-10-21T04:49:15.648Z,53.30
2022-10-21T04:51:42.151Z,55.20
2022-10-21T04:54:08.526Z,54.40
2022-10-21T04:56:34.857Z,56.30
2022-10-21T04:59:01.237Z,52.25
2022-10-21T05:01:27.680Z,59.50
2022-10-21T05:03:54.220Z,57.95
2022-10-21T05:06:20.865Z,54.00
2022-10-21T05:08:47.267Z,52.88
2022-10-21T05:11:13.835Z,55.88
2022-10-21T05:13:40.364Z,55.58
2022-10-21T05:16:07.252Z,56.72
2022-10-21T05:18:33.730Z,54.45
2022-10-21T05:21:00.434Z,59.53
2022-10-21T05:23:27.474Z,55.80
2022-10-21T05:25:54.374Z,54.28
2022-10-21T05:28:21.762Z,54.72
2022-10-21T05:30:48.483Z,54.20
2022-10-21T05:33:15.826Z,56.42
2022-10-21T05:35:42.341Z,56.08
2022-10-21T05:38:08.714Z,55.05
2022-10-21T05:40:35.105Z,57.53
2022-10-21T05:43:01.646Z,60.13
2022-10-21T05:45:28.235Z,58.45
2022-10-21T05:47:54.606Z,57.85
2022-10-21T05:50:21.319Z,55.33
2022-10-21T05:52:47.685Z,60.05
2022-10-21T05:55:14.139Z,61.10
2022-10-21T05:57:40.581Z,56.80
2022-10-21T06:00:08.141Z,56.15
2022-10-21T06:02:34.606Z,59.97
2022-10-21T06:05:01.017Z,57.13
2022-10-21T06:07:27.634Z,63.97
2022-10-21T06:09:54.985Z,56.20
2022-10-21T06:12:22.293Z,63.22
2022-10-21T06:14:48.754Z,61.35
2022-10-21T06:17:15.210Z,57.30
2022-10-21T06:19:41.691Z,59.05
2022-10-21T06:22:08.039Z,60.70
2022-10-21T06:24:34.607Z,56.78
2022-10-21T06:27:01.087Z,57.17
2022-10-21T06:29:27.584Z,62.08
2022-10-21T06:31:54.034Z,67.80
2022-10-21T06:34:20.534Z,61.47
2022-10-21T06:36:46.975Z,62.03
2022-10-21T06:39:13.392Z,59.15
2022-10-21T06:41:39.752Z,56.67
2022-10-21T06:44:06.181Z,57.58
2022-10-21T06:46:32.555Z,59.90
2022-10-21T06:48:58.933Z,75.90
2022-10-21T06:51:25.574Z,66.55
2022-10-21T06:53:54.625Z,72.32
2022-10-21T06:56:21.990Z,60.70
2022-10-21T06:58:50.222Z,69.13
2022-10-21T07:01:33.428Z,67.65
2022-10-21T07:04:01.548Z,64.70
2022-10-21T07:06:28.019Z,67.32
2022-10-21T07:08:58.274Z,64.03
2022-10-21T07:11:26.072Z,66.45
2022-10-21T07:13:52.491Z,61.08
2022-10-21T07:16:33.318Z,73.32
2022-10-21T07:19:00.207Z,65.78
2022-10-21T07:21:29.649Z,62.47
2022-10-21T07:23:59.305Z,65.50
2022-10-21T07:26:28.232Z,63.40
2022-10-21T07:28:57.915Z,65.78
2022-10-21T07:31:24.519Z,65.20
2022-10-21T07:33:51.292Z,62.88
2022-10-21T07:36:21.708Z,64.57
2022-10-21T07:38:49.760Z,62.10
2022-10-21T07:41:19.956Z,63.67
2022-10-21T07:43:46.886Z,66.05
2022-10-21T07:46:13.858Z,59.08
2022-10-21T07:48:40.234Z,59.92
2022-10-21T07:51:12.421Z,58.78
2022-10-21T07:53:40.226Z,60.50
2022-10-21T07:56:06.779Z,63.22
2022-10-21T07:58:33.639Z,59.90
2022-10-21T08:01:01.927Z,62.60
2022-10-21T08:03:28.810Z,60.50
2022-10-21T08:05:56.129Z,65.30
2022-10-21T08:08:28.482Z,62.38
2022-10-21T08:10:56.031Z,62.60
2022-10-21T08:13:23.240Z,71.30
2022-10-21T08:15:52.130Z,58.08
2022-10-21T08:18:19.493Z,66.00
2022-10-21T08:20:47.783Z,64.63
2022-10-21T08:23:16.980Z,64.38
2022-10-21T08:25:50.522Z,61.97
2022-10-21T08:28:17.975Z,66.90
2022-10-21T08:30:44.739Z,66.50
2022-10-21T08:33:12.368Z,57.38
2022-10-21T08:35:39.660Z,60.67
2022-10-21T08:40:41.316Z,59.03
2022-10-21T08:43:22.275Z,55.92
2022-10-21T08:45:54.508Z,61.97
2022-10-21T08:48:26.119Z,63.08
2022-10-21T08:50:56.117Z,63.05
2022-10-21T08:53:24.393Z,61.75
2022-10-21T08:55:56.064Z,56.35
2022-10-21T08:58:23.733Z,55.17
2022-10-21T09:01:03.259Z,65.57
2022-10-21T09:03:54.363Z,60.45
2022-10-21T09:06:27.946Z,55.05
2022-10-21T09:08:57.423Z,60.65
2022-10-21T09:11:33.074Z,54.88
2022-10-21T09:14:17.090Z,56.15
2022-10-21T09:17:01.051Z,52.97
2022-10-21T09:20:01.853Z,58.88
2022-10-21T09:22:46.919Z,54.20
2022-10-21T09:25:25.441Z,60.15
2022-10-21T09:27:57.236Z,52.58
2022-10-21T09:30:24.822Z,54.38
2022-10-21T09:32:56.432Z,54.47
2022-10-21T09:35:23.916Z,49.22
2022-10-21T09:38:02.270Z,55.53
2022-10-21T09:40:30.921Z,51.65
2022-10-21T09:43:00.609Z,47.30
2022-10-21T09:45:37.638Z,50.00
2022-10-21T09:48:50.247Z,47.80
2022-10-21T09:51:28.756Z,43.75
2022-10-21T09:54:17.913Z,47.38
2022-10-21T09:56:49.946Z,46.65
2022-10-21T09:59:19.560Z,43.75
2022-10-21T10:01:46.468Z,46.67
2022-10-21T10:04:29.347Z,49.85
2022-10-21T10:06:56.659Z,42.22
2022-10-21T10:09:34.255Z,43.63
2022-10-21T10:12:12.481Z,39.53
2022-10-21T10:14:41.209Z,42.20
2022-10-21T10:17:25.607Z,41.63
2022-10-21T10:20:07.319Z,35.78
2022-10-21T10:22:41.727Z,33.72
2022-10-21T10:25:14.375Z,36.17
2022-10-21T10:27:59.283Z,35.33
2022-10-21T10:30:36.123Z,33.13
2022-10-21T10:33:09.428Z,30.60
2022-10-21T10:35:37.849Z,28.83
2022-10-21T10:38:05.350Z,27.63
2022-10-21T10:40:41.741Z,32.03
2022-10-21T10:43:21.104Z,26.65
2022-10-21T10:45:54.003Z,25.73
2022-10-21T10:48:25.418Z,27.33
2022-10-21T10:50:51.899Z,27.52
2022-10-21T10:53:32.053Z,25.95
2022-10-21T10:56:14.931Z,23.90
2022-10-21T10:59:01.835Z,24.33
2022-10-21T11:01:34.287Z,28.33
2022-10-21T11:04:21.114Z,23.08
2022-10-21T11:06:52.363Z,22.95
2022-10-21T11:09:22.608Z,24.00
2022-10-21T11:11:54.678Z,22.50
2022-10-21T11:14:22.833Z,24.52
2022-10-21T11:17:01.047Z,22.13
2022-10-21T11:19:39.780Z,21.92
2022-10-21T11:22:34.176Z,25.30
2022-10-21T11:25:21.977Z,22.50
2022-10-21T11:27:59.635Z,20.98
2022-10-21T11:30:39.196Z,21.35
2022-10-21T11:33:19.071Z,19.85
2022-10-21T11:38:50.324Z,20.67
2022-10-21T11:41:31.911Z,20.85
2022-10-21T11:44:31.498Z,23.70
2022-10-21T11:47:09.477Z,20.75
2022-10-21T11:49:50.547Z,25.85
2022-10-21T11:52:38.730Z,25.17
2022-10-21T11:55:27.329Z,19.02
2022-10-21T11:58:08.034Z,20.00
2022-10-21T12:00:48.902Z,19.63
2022-10-21T12:03:44.032Z,19.75
2022-10-21T12:06:34.653Z,19.17
2022-10-21T12:09:06.208Z,21.90
2022-10-21T12:11:44.610Z,21.50
2022-10-21T12:14:31.059Z,21.63
2022-10-21T12:17:01.538Z,19.90
2022-10-21T12:19:28.325Z,24.77
2022-10-21T12:21:55.093Z,19.95
2022-10-21T12:24:38.453Z,25.25
2022-10-21T12:27:25.934Z,25.38
2022-10-21T12:30:23.475Z,24.98
2022-10-21T12:33:12.825Z,23.25
2022-10-21T12:35:50.421Z,20.83
2022-10-21T12:38:43.725Z,24.80
2022-10-21T12:41:26.195Z,20.50
2022-10-21T12:43:53.911Z,20.80
2022-10-21T12:46:26.226Z,21.33
2022-10-21T12:48:52.935Z,22.95
2022-10-21T12:51:25.922Z,23.05
2022-10-21T12:53:58.292Z,21.85
2022-10-21T12:56:42.615Z,22.65
2022-10-21T12:59:44.663Z,20.23
2022-10-21T13:02:25.025Z,21.40
2022-10-21T13:04:54.862Z,27.27
2022-10-21T13:07:21.178Z,25.88
2022-10-21T13:09:56.712Z,25.70
2022-10-21T13:12:23.081Z,26.10
2022-10-21T13:14:52.090Z,25.85
2022-10-21T13:17:21.438Z,21.90
2022-10-21T13:19:48.851Z,25.08
2022-10-21T13:22:20.064Z,23.48
2022-10-21T13:24:47.119Z,21.90
2022-10-21T13:27:35.858Z,20.80
2022-10-21T13:30:03.041Z,28.85
2022-10-21T13:33:02.672Z,32.38
2022-10-21T13:35:36.765Z,25.55
2022-10-21T13:38:21.014Z,21.92
2022-10-21T13:40:51.122Z,25.75
2022-10-21T13:45:49.883Z,22.77
2022-10-21T13:48:19.760Z,21.20
2022-10-21T13:50:48.652Z,28.52
2022-10-21T13:53:17.728Z,22.40
2022-10-21T13:56:01.762Z,22.08
2022-10-21T13:58:30.428Z,16.60
2022-10-21T14:00:59.003Z,14.95
2022-10-21T14:03:26.543Z,16.63
2022-10-21T14:05:58.145Z,15.80
2022-10-21T14:08:34.123Z,18.48
2022-10-21T14:11:24.110Z,17.33
2022-10-21T14:13:51.321Z,17.42
2022-10-21T14:16:40.919Z,21.55
2022-10-21T14:19:14.441Z,15.85
2022-10-21T14:21:45.199Z,14.40
2022-10-21T14:24:38.951Z,16.83
2022-10-21T14:27:06.501Z,18.95
2022-10-21T14:29:35.635Z,23.45
2022-10-21T14:32:03.550Z,31.08
2022-10-21T14:34:32.868Z,17.23
2022-10-21T14:37:23.147Z,14.88
2022-10-21T14:39:49.886Z,18.05
2022-10-21T14:42:25.582Z,15.07
2022-10-21T14:45:02.497Z,14.93
2022-10-21T14:47:29.028Z,13.82
2022-10-21T14:49:59.765Z,19.08
2022-10-21T14:52:42.599Z,15.27
2022-10-21T14:55:14.248Z,14.18
2022-10-21T14:57:45.550Z,20.17
2022-10-21T15:00:30.201Z,15.50
2022-10-21T15:02:58.372Z,17.38
2022-10-21T15:05:37.663Z,16.92
2022-10-21T15:08:19.190Z,15.73
2022-10-21T15:10:46.499Z,15.48
2022-10-21T15:13:17.206Z,16.77
2022-10-21T15:15:55.087Z,27.70
2022-10-21T15:18:43.779Z,16.42
2022-10-21T15:21:13.785Z,18.92
2022-10-21T15:23:43.361Z,21.27
2022-10-21T15:26:19.158Z,15.50
2022-10-21T15:28:45.663Z,14.68
2022-10-21T15:31:20.304Z,15.98
2022-10-21T15:33:48.819Z,17.90
2022-10-21T15:36:16.070Z,16.08
2022-10-21T15:38:46.829Z,18.80
2022-10-21T15:41:18.883Z,16.60
2022-10-21T15:43:57.131Z,19.80
2022-10-21T15:46:25.659Z,22.10
2022-10-21T15:48:52.753Z,18.10
2022-10-21T15:51:19.820Z,17.02
2022-10-21T15:53:46.231Z,18.70
2022-10-21T15:56:17.070Z,15.43
2022-10-21T15:58:43.511Z,14.57
2022-10-21T16:01:15.942Z,19.48
2022-10-21T16:03:43.450Z,17.80
2022-10-21T16:06:19.715Z,21.75
2022-10-21T16:08:46.883Z,16.38
2022-10-21T16:11:25.606Z,19.80
2022-10-21T16:14:01.476Z,20.45
2022-10-21T16:16:27.965Z,21.65
2022-10-21T16:18:54.322Z,19.27
2022-10-21T16:21:22.592Z,20.08
2022-10-21T16:23:49.842Z,25.20
2022-10-21T16:26:23.647Z,18.67
2022-10-21T16:28:51.645Z,21.98
2022-10-21T16:31:18.907Z,23.10
2022-10-21T16:33:45.661Z,21.23
2022-10-21T16:36:23.924Z,19.08
2022-10-21T16:38:51.250Z,23.48
2022-10-21T16:41:28.722Z,19.17
2022-10-21T16:43:56.270Z,22.77
2022-10-21T16:46:41.783Z,21.10
2022-10-21T16:49:14.841Z,23.15
2022-10-21T16:51:45.992Z,21.17
2022-10-21T16:54:13.114Z,24.50
2022-10-21T16:56:39.580Z,23.35
2022-10-21T16:59:06.113Z,23.55
2022-10-21T17:01:32.726Z,27.75
2022-10-21T17:03:59.171Z,22.05
2022-10-21T17:06:26.546Z,26.02
2022-10-21T17:08:55.242Z,22.35
2022-10-21T17:11:25.269Z,23.08
2022-10-21T17:13:51.898Z,21.70
2022-10-21T17:16:20.062Z,28.08
2022-10-21T17:18:47.694Z,24.85
2022-10-21T17:21:26.324Z,27.75
2022-10-21T17:23:53.824Z,28.98
2022-10-21T17:26:20.631Z,24.67
2022-10-21T17:28:47.354Z,24.55
2022-10-21T17:31:19.900Z,26.73
2022-10-21T17:33:47.469Z,26.30
2022-10-21T17:36:15.649Z,24.45
2022-10-21T17:38:42.100Z,26.52
2022-10-21T17:41:09.866Z,30.02
2022-10-21T17:43:36.970Z,30.55
2022-10-21T17:46:04.247Z,24.98
2022-10-21T17:48:32.159Z,25.33
2022-10-21T17:51:01.663Z,24.63
2022-10-21T17:53:30.064Z,25.58
2022-10-21T17:56:00.800Z,24.20
2022-10-21T17:58:27.891Z,24.58
2022-10-21T18:00:57.980Z,27.20
2022-10-21T18:05:52.441Z,26.75
2022-10-21T18:08:19.027Z,27.55
2022-10-21T18:10:53.238Z,29.75
2022-10-21T18:13:19.895Z,32.20
2022-10-21T18:15:46.302Z,23.73
2022-10-21T18:18:12.925Z,27.05
2022-10-21T18:20:39.401Z,27.52
2022-10-21T18:23:05.766Z,25.80
2022-10-21T18:25:35.374Z,27.92
2022-10-21T18:28:01.835Z,29.30
2022-10-21T18:30:28.343Z,25.83
2022-10-21T18:32:54.767Z,25.98
2022-10-21T18:35:21.131Z,24.83
2022-10-21T18:37:47.773Z,24.63
2022-10-21T18:40:14.273Z,28.00
2022-10-21T18:42:40.795Z,27.25
2022-10-21T18:45:07.603Z,26.88
2022-10-21T18:47:34.706Z,26.45
2022-10-21T18:50:05.072Z,32.58
2022-10-21T18:52:31.430Z,29.95
2022-10-21T18:54:57.987Z,27.20
2022-10-21T18:57:24.492Z,24.83
2022-10-21T18:59:50.910Z,32.95
2022-10-21T19:02:20.950Z,26.92
2022-10-21T19:04:47.744Z,28.25
2022-10-21T19:07:14.517Z,36.80
2022-10-21T19:09:40.886Z,32.90
2022-10-21T19:12:10.663Z,26.90
2022-10-21T19:14:40.887Z,33.47
2022-10-21T19:17:07.411Z,25.95
2022-10-21T19:19:37.152Z,33.67
2022-10-21T19:22:05.711Z,35.80
2022-10-21T19:24:32.106Z,35.20
2022-10-21T19:26:59.002Z,31.25
2022-10-21T19:29:26.016Z,34.47
2022-10-21T19:31:52.743Z,34.47
2022-10-21T19:34:22.379Z,35.45
2022-10-21T19:36:49.736Z,37.95
2022-10-21T19:39:16.319Z,35.13
2022-10-21T19:41:43.226Z,37.50
2022-10-21T19:44:09.873Z,34.55
2022-10-21T19:46:36.927Z,39.85
2022-10-21T19:49:05.241Z,40.97
2022-10-21T19:51:32.480Z,44.10
2022-10-21T19:53:59.363Z,37.13
2022-10-21T19:56:29.612Z,40.15
2022-10-21T19:58:57.312Z,49.70
2022-10-21T20:01:26.283Z,46.20
2022-10-21T20:03:54.362Z,41.05
2022-10-21T20:06:30.033Z,45.05
2022-10-21T20:09:00.382Z,40.08
2022-10-21T20:11:27.960Z,40.80
2022-10-21T20:13:55.253Z,41.45
2022-10-21T20:16:27.338Z,44.08
2022-10-21T20:18:54.909Z,63.25
2022-10-21T20:21:22.880Z,48.95
2022-10-21T20:23:50.549Z,50.85
2022-10-21T20:26:16.995Z,50.50
2022-10-21T20:28:43.453Z,54.35
2022-10-21T20:31:12.309Z,53.28
2022-10-21T20:33:42.093Z,50.15
2022-10-21T20:36:20.730Z,50.25
2022-10-21T20:38:47.864Z,42.60
2022-10-21T20:41:17.731Z,43.90
2022-10-21T20:43:44.296Z,46.13
2022-10-21T20:46:13.077Z,50.83
2022-10-21T20:48:44.692Z,55.85
2022-10-21T20:51:16.539Z,51.10
2022-10-21T20:53:50.232Z,44.83
2022-10-21T20:56:16.822Z,44.50
2022-10-21T20:58:43.401Z,43.42
2022-10-21T21:01:17.872Z,43.55
2022-10-21T21:03:45.555Z,44.13
2022-10-21T21:06:12.571Z,46.47
2022-10-21T21:08:48.664Z,46.38
2022-10-21T21:11:25.049Z,45.88
2022-10-21T21:13:51.425Z,48.22
2022-10-21T21:16:20.340Z,49.28
2022-10-21T21:18:51.615Z,48.33
2022-10-21T21:21:20.367Z,46.22
2022-10-21T21:23:46.807Z,53.17
2022-10-21T21:26:17.661Z,48.67
2022-10-21T21:28:45.434Z,53.60
2022-10-21T21:31:12.788Z,50.38
2022-10-21T21:33:39.826Z,49.13
2022-10-21T21:36:06.868Z,51.20
2022-10-21T21:38:34.709Z,52.85
2022-10-21T21:41:03.550Z,49.15
2022-10-21T21:43:32.754Z,49.80
2022-10-21T21:45:59.716Z,49.85
2022-10-21T21:48:26.994Z,49.10
2022-10-21T21:51:04.568Z,50.58
2022-10-21T21:53:31.060Z,51.50
2022-10-21T21:56:03.280Z,52.60
2022-10-21T21:58:30.342Z,52.90
2022-10-21T22:00:56.693Z,54.00
2022-10-21T22:03:23.416Z,52.10
2022-10-21T22:05:50.086Z,52.17
2022-10-21T22:08:16.471Z,52.72
2022-10-21T22:10:42.926Z,56.63
2022-10-21T22:13:09.403Z,53.88
2022-10-21T22:15:47.445Z,56.33
2022-10-21T22:18:14.747Z,53.15
2022-10-21T22:20:41.158Z,55.17
2022-10-21T22:23:07.592Z,54.65
2022-10-21T22:25:34.005Z,62.47
2022-10-21T22:28:00.499Z,55.88
2022-10-21T22:30:26.849Z,61.05
2022-10-21T22:32:53.230Z,53.33
2022-10-21T22:35:19.873Z,54.95
2022-10-21T22:37:46.288Z,59.17
2022-10-21T22:40:12.824Z,56.65
2022-10-21T22:42:39.257Z,57.40
2022-10-21T22:45:06.360Z,56.85
2022-10-21T22:47:32.861Z,61.88
2022-10-21T22:49:59.288Z,55.70
2022-10-21T22:52:25.742Z,53.08
2022-10-21T22:54:52.113Z,59.20
2022-10-21T22:57:20.540Z,57.63
2022-10-21T22:59:52.051Z,55.20
2022-10-21T23:02:19.837Z,54.55
2022-10-21T23:04:46.206Z,57.47
2022-10-21T23:07:12.862Z,51.78
2022-10-21T23:09:39.243Z,53.25
2022-10-21T23:12:05.751Z,53.47
2022-10-21T23:14:32.165Z,52.25
2022-10-21T23:16:58.530Z,52.65
2022-10-21T23:19:24.965Z,64.45
2022-10-21T23:21:51.326Z,50.78
2022-10-21T23:24:17.727Z,52.03
2022-10-21T23:26:44.105Z,54.67
2022-10-21T23:29:10.572Z,52.65
2022-10-21T23:31:36.969Z,53.28
2022-10-21T23:34:05.845Z,50.35
2022-10-21T23:36:33.465Z,58.30
2022-10-21T23:39:00.177Z,50.13
2022-10-21T23:41:26.581Z,53.42
2022-10-21T23:43:53.165Z,54.20
2022-10-21T23:46:21.004Z,57.55
2022-10-21T23:48:47.436Z,56.92
2022-10-21T23:51:13.864Z,57.58
2022-10-21T23:53:40.453Z,57.97
2022-10-21T23:56:07.316Z,57.67
2022-10-21T23:58:33.829Z,50.05
